createdAt,value
2019-02-27T00:01:24.056Z,6.30
2019-02-27T00:03:52.047Z,6.30
2019-02-27T00:06:20.154Z,6.20
2019-02-27T00:08:48.704Z,6.10
2019-02-27T00:11:21.219Z,6.20
2019-02-27T00:14:01.542Z,6.10
2019-02-27T00:16:34.019Z,6.10
2019-02-27T00:20:11.365Z,6.10
2019-02-27T00:22:54.745Z,6.10
2019-02-27T00:25:31.098Z,6.10
2019-02-27T00:28:26.028Z,6.00
2019-02-27T00:31:00.106Z,6.00
2019-02-27T00:33:28.741Z,6.00
2019-02-27T00:36:00.015Z,6.00
2019-02-27T00:38:30.924Z,6.00
2019-02-27T00:41:00.883Z,6.00
2019-02-27T00:43:29.227Z,6.00
2019-02-27T00:45:57.362Z,6.00
2019-02-27T00:48:28.184Z,5.90
2019-02-27T00:50:56.129Z,5.90
2019-02-27T00:53:24.504Z,5.90
2019-02-27T00:55:53.286Z,5.80
2019-02-27T00:58:21.556Z,5.80
2019-02-27T01:00:50.680Z,5.70
2019-02-27T01:03:18.579Z,5.70
2019-02-27T01:05:48.498Z,5.60
2019-02-27T01:08:16.535Z,5.50
2019-02-27T01:10:46.961Z,5.40
2019-02-27T01:13:24.035Z,5.40
2019-02-27T01:15:55.012Z,5.30
2019-02-27T01:18:23.009Z,5.40
2019-02-27T01:20:51.145Z,5.40
2019-02-27T01:23:20.485Z,5.30
2019-02-27T01:25:48.106Z,4.90
2019-02-27T01:28:15.918Z,5.00
2019-02-27T01:30:43.736Z,5.10
2019-02-27T01:33:11.389Z,5.20
2019-02-27T01:35:39.235Z,5.30
2019-02-27T01:38:07.290Z,5.20
2019-02-27T01:40:34.874Z,5.10
2019-02-27T01:43:05.493Z,5.10
2019-02-27T01:45:32.613Z,5.00
2019-02-27T01:48:00.361Z,5.00
2019-02-27T01:50:39.956Z,5.00
2019-02-27T01:53:09.881Z,4.90
2019-02-27T01:55:37.915Z,4.80
2019-02-27T01:58:09.175Z,4.80
2019-02-27T02:00:35.660Z,4.80
2019-02-27T02:03:05.507Z,4.80
2019-02-27T02:05:33.375Z,4.90
2019-02-27T02:08:47.966Z,5.00
2019-02-27T02:11:14.086Z,5.00
2019-02-27T02:14:22.184Z,4.90
2019-02-27T02:17:30.078Z,4.90
2019-02-27T02:20:49.590Z,5.00
2019-02-27T02:23:47.760Z,4.90
2019-02-27T02:26:40.768Z,4.80
2019-02-27T02:29:52.966Z,4.80
2019-02-27T02:33:03.104Z,4.80
2019-02-27T02:36:02.406Z,4.70
2019-02-27T02:39:06.701Z,4.80
2019-02-27T02:42:09.061Z,4.70
2019-02-27T02:44:58.483Z,4.70
2019-02-27T02:47:58.214Z,4.60
2019-02-27T02:51:07.425Z,4.60
2019-02-27T02:54:19.255Z,4.60
2019-02-27T02:57:46.505Z,4.60
2019-02-27T03:00:25.573Z,4.50
2019-02-27T03:03:19.576Z,4.50
2019-02-27T03:06:27.359Z,4.50
2019-02-27T03:09:19.796Z,4.40
2019-02-27T03:12:29.693Z,4.20
2019-02-27T03:15:31.486Z,4.00
2019-02-27T03:18:22.305Z,3.90
2019-02-27T03:21:37.623Z,4.10
2019-02-27T03:24:37.249Z,4.10
2019-02-27T03:27:43.292Z,4.30
2019-02-27T03:30:36.408Z,4.10
2019-02-27T03:33:46.653Z,4.10
2019-02-27T03:36:54.137Z,4.10
2019-02-27T03:40:10.869Z,4.10
2019-02-27T03:42:57.726Z,4.00
2019-02-27T03:46:07.889Z,4.00
2019-02-27T03:49:19.120Z,4.00
2019-02-27T03:52:38.178Z,4.00
2019-02-27T03:55:59.658Z,4.00
2019-02-27T03:58:52.103Z,4.00
2019-02-27T04:01:56.710Z,4.00
2019-02-27T04:05:15.896Z,4.00
2019-02-27T04:08:29.657Z,4.00
2019-02-27T04:10:57.334Z,4.00
2019-02-27T04:13:27.822Z,4.00
2019-02-27T04:15:56.890Z,4.00
2019-02-27T04:18:27.377Z,3.90
2019-02-27T04:20:53.189Z,3.80
2019-02-27T04:23:20.748Z,3.80
2019-02-27T04:25:48.292Z,3.70
2019-02-27T04:28:15.833Z,3.70
2019-02-27T04:30:44.612Z,3.70
2019-02-27T04:33:12.351Z,3.80
2019-02-27T04:35:40.193Z,3.80
2019-02-27T04:38:08.423Z,3.80
2019-02-27T04:40:38.292Z,3.80
2019-02-27T04:43:06.079Z,3.80
2019-02-27T04:45:33.688Z,3.70
2019-02-27T04:48:04.294Z,3.70
2019-02-27T04:50:31.908Z,3.70
2019-02-27T04:52:59.491Z,3.70
2019-02-27T04:55:27.624Z,3.70
2019-02-27T04:57:55.896Z,3.70
2019-02-27T05:00:26.244Z,3.80
2019-02-27T05:02:54.736Z,3.80
2019-02-27T05:05:22.728Z,3.80
2019-02-27T05:07:54.066Z,3.70
2019-02-27T05:10:21.235Z,3.60
2019-02-27T05:12:49.006Z,3.70
2019-02-27T05:15:16.713Z,3.80
2019-02-27T05:17:44.417Z,3.70
2019-02-27T05:20:12.803Z,3.50
2019-02-27T05:22:40.622Z,3.40
2019-02-27T05:25:12.137Z,3.30
2019-02-27T05:27:41.138Z,3.20
2019-02-27T05:30:11.991Z,3.10
2019-02-27T05:32:38.472Z,3.00
2019-02-27T05:35:06.681Z,3.10
2019-02-27T05:37:36.150Z,3.00
2019-02-27T05:40:04.147Z,3.00
2019-02-27T05:42:31.752Z,3.10
2019-02-27T05:44:59.661Z,3.10
2019-02-27T05:47:27.205Z,3.20
2019-02-27T05:49:55.136Z,3.20
2019-02-27T05:52:23.359Z,3.30
2019-02-27T05:54:50.932Z,3.30
2019-02-27T05:57:21.087Z,3.30
2019-02-27T05:59:57.159Z,3.30
2019-02-27T06:02:25.554Z,3.10
2019-02-27T06:04:56.167Z,3.10
2019-02-27T06:07:24.286Z,3.10
2019-02-27T06:09:52.063Z,3.20
2019-02-27T06:12:19.853Z,3.30
2019-02-27T06:14:48.294Z,3.10
2019-02-27T06:17:16.010Z,3.10
2019-02-27T06:19:43.688Z,3.10
2019-02-27T06:22:11.680Z,3.20
2019-02-27T06:24:43.114Z,3.20
2019-02-27T06:27:13.841Z,3.10
2019-02-27T06:29:41.505Z,3.20
2019-02-27T06:32:12.141Z,3.10
2019-02-27T06:34:38.843Z,3.20
2019-02-27T06:37:06.812Z,3.20
2019-02-27T06:39:35.642Z,3.20
2019-02-27T06:42:03.314Z,3.30
2019-02-27T06:44:30.793Z,3.30
2019-02-27T06:46:58.321Z,3.40
2019-02-27T06:49:25.949Z,3.50
2019-02-27T06:51:53.489Z,3.40
2019-02-27T06:54:21.017Z,3.40
2019-02-27T06:56:48.535Z,3.40
2019-02-27T06:59:17.972Z,3.40
2019-02-27T07:01:47.527Z,3.50
2019-02-27T07:04:21.851Z,3.50
2019-02-27T07:06:49.493Z,3.60
2019-02-27T07:09:18.401Z,3.70
2019-02-27T07:11:48.937Z,3.70
2019-02-27T07:14:16.489Z,3.70
2019-02-27T07:16:45.100Z,3.70
2019-02-27T07:19:13.136Z,3.80
2019-02-27T07:21:42.242Z,3.90
2019-02-27T07:24:12.468Z,4.00
2019-02-27T07:26:43.857Z,4.10
2019-02-27T07:29:20.994Z,4.00
2019-02-27T07:31:40.758Z,4.20
2019-02-27T07:34:08.333Z,4.20
2019-02-27T07:36:38.320Z,4.20
2019-02-27T07:39:06.394Z,4.30
2019-02-27T07:41:35.395Z,4.30
2019-02-27T07:44:04.695Z,4.20
2019-02-27T07:46:35.560Z,4.30
2019-02-27T07:49:06.768Z,4.50
2019-02-27T07:51:34.704Z,4.80
2019-02-27T07:54:03.933Z,5.10
2019-02-27T07:56:40.183Z,5.30
2019-02-27T07:59:07.890Z,5.50
2019-02-27T08:01:43.526Z,5.80
2019-02-27T08:04:05.891Z,6.30
2019-02-27T08:06:35.097Z,6.40
2019-02-27T08:09:04.050Z,6.60
2019-02-27T08:11:31.901Z,6.80
2019-02-27T08:14:09.019Z,7.10
2019-02-27T08:16:44.553Z,7.30
2019-02-27T08:19:14.740Z,7.30
2019-02-27T08:21:43.695Z,7.50
2019-02-27T08:24:11.302Z,7.70
2019-02-27T08:26:38.845Z,8.00
2019-02-27T08:29:06.712Z,7.90
2019-02-27T08:31:34.613Z,7.90
2019-02-27T08:34:02.237Z,8.10
2019-02-27T08:36:29.747Z,8.30
2019-02-27T08:38:57.384Z,8.80
2019-02-27T08:41:24.889Z,9.00
2019-02-27T08:43:52.429Z,9.40
2019-02-27T08:46:20.040Z,9.40
2019-02-27T08:48:49.922Z,9.50
2019-02-27T08:51:17.053Z,9.70
2019-02-27T08:53:44.605Z,10.10
2019-02-27T08:56:12.440Z,10.50
2019-02-27T08:58:40.495Z,10.80
2019-02-27T09:01:10.337Z,11.00
2019-02-27T09:03:37.884Z,11.20
2019-02-27T09:06:05.721Z,11.50
2019-02-27T09:08:33.844Z,11.80
2019-02-27T09:11:05.521Z,11.70
2019-02-27T09:13:31.156Z,11.80
2019-02-27T09:15:59.056Z,12.00
2019-02-27T09:18:29.549Z,11.90
2019-02-27T09:20:57.717Z,11.90
2019-02-27T09:23:25.288Z,11.90
2019-02-27T09:25:57.153Z,12.30
2019-02-27T09:28:23.370Z,12.60
2019-02-27T09:30:50.996Z,12.90
2019-02-27T09:33:19.988Z,13.10
2019-02-27T09:35:48.264Z,13.00
2019-02-27T09:38:16.288Z,13.00
2019-02-27T09:40:43.847Z,13.10
2019-02-27T09:43:11.800Z,12.90
2019-02-27T09:45:39.349Z,13.10
2019-02-27T09:48:06.855Z,13.20
2019-02-27T09:50:41.613Z,13.30
2019-02-27T09:53:10.019Z,13.50
2019-02-27T09:55:39.523Z,13.60
2019-02-27T09:58:11.046Z,13.70
2019-02-27T10:01:07.920Z,13.60
2019-02-27T10:03:36.397Z,13.60
2019-02-27T10:06:15.319Z,14.00
2019-02-27T10:08:47.320Z,14.20
2019-02-27T10:11:19.549Z,14.30
2019-02-27T10:13:47.201Z,14.40
2019-02-27T10:16:14.915Z,14.40
2019-02-27T10:18:42.747Z,14.60
2019-02-27T10:21:12.151Z,14.80
2019-02-27T10:23:39.873Z,14.60
2019-02-27T10:26:07.872Z,14.50
2019-02-27T10:28:39.743Z,14.80
2019-02-27T10:31:05.978Z,15.20
2019-02-27T10:33:33.569Z,15.60
2019-02-27T10:36:03.671Z,15.70
2019-02-27T10:38:30.968Z,15.80
2019-02-27T10:40:58.501Z,16.00
2019-02-27T10:43:26.092Z,16.10
2019-02-27T10:45:54.145Z,16.20
2019-02-27T10:48:22.061Z,16.40
2019-02-27T10:50:50.730Z,16.60
2019-02-27T10:53:18.242Z,16.70
2019-02-27T10:55:46.464Z,16.60
2019-02-27T10:58:15.200Z,16.90
2019-02-27T11:00:46.308Z,17.10
2019-02-27T11:03:14.162Z,17.20
2019-02-27T11:05:41.881Z,17.30
2019-02-27T11:08:09.940Z,17.30
2019-02-27T11:10:41.498Z,17.40
2019-02-27T11:13:09.223Z,17.60
2019-02-27T11:15:41.067Z,17.60
2019-02-27T11:18:06.556Z,17.70
2019-02-27T11:20:34.070Z,17.80
2019-02-27T11:23:06.458Z,17.60
2019-02-27T11:25:32.642Z,17.40
2019-02-27T11:28:00.375Z,17.30
2019-02-27T11:30:35.686Z,17.30
2019-02-27T11:33:02.231Z,17.20
2019-02-27T11:35:29.784Z,17.30
2019-02-27T11:38:00.828Z,17.40
2019-02-27T11:40:29.965Z,17.70
2019-02-27T11:43:06.585Z,17.90
2019-02-27T11:45:32.661Z,18.00
2019-02-27T11:48:00.684Z,18.10
2019-02-27T11:50:38.172Z,18.20
2019-02-27T11:53:05.725Z,18.30
2019-02-27T11:55:33.291Z,18.40
2019-02-27T11:58:04.604Z,18.30
2019-02-27T12:00:30.291Z,18.40
2019-02-27T12:02:58.409Z,18.50
2019-02-27T12:05:30.294Z,18.50
2019-02-27T12:07:55.591Z,18.60
2019-02-27T12:10:24.900Z,18.60
2019-02-27T12:12:52.487Z,18.80
2019-02-27T12:15:20.580Z,18.90
2019-02-27T12:17:48.186Z,19.00
2019-02-27T12:20:18.305Z,18.90
2019-02-27T12:22:46.752Z,19.10
2019-02-27T12:25:14.553Z,19.10
2019-02-27T12:27:49.021Z,19.10
2019-02-27T12:30:16.201Z,19.20
2019-02-27T12:32:43.736Z,19.30
2019-02-27T12:35:16.457Z,19.20
2019-02-27T12:37:44.149Z,19.30
2019-02-27T12:40:13.689Z,19.40
2019-02-27T12:42:42.724Z,19.60
2019-02-27T12:45:13.423Z,19.50
2019-02-27T12:47:41.834Z,19.50
2019-02-27T12:50:10.904Z,19.30
2019-02-27T12:52:38.547Z,19.30
2019-02-27T12:55:06.116Z,19.40
2019-02-27T12:57:33.989Z,19.50
2019-02-27T13:00:01.679Z,19.60
2019-02-27T13:02:35.685Z,19.80
2019-02-27T13:04:59.369Z,19.70
2019-02-27T13:07:29.805Z,19.70
2019-02-27T13:09:58.772Z,19.70
2019-02-27T13:12:32.417Z,19.60
2019-02-27T13:15:00.361Z,19.60
2019-02-27T13:17:28.043Z,19.70
2019-02-27T13:19:55.618Z,19.80
2019-02-27T13:22:23.209Z,19.80
2019-02-27T13:24:51.044Z,19.60
2019-02-27T13:27:18.680Z,19.60
2019-02-27T13:29:46.281Z,19.60
2019-02-27T13:32:14.069Z,19.60
2019-02-27T13:34:41.660Z,19.70
2019-02-27T13:37:10.061Z,19.70
2019-02-27T13:39:38.152Z,19.80
2019-02-27T13:42:06.021Z,19.90
2019-02-27T13:44:35.199Z,20.00
2019-02-27T13:47:02.866Z,20.00
2019-02-27T13:49:32.916Z,20.00
2019-02-27T13:52:00.424Z,20.00
2019-02-27T13:54:35.097Z,20.00
2019-02-27T13:57:00.903Z,19.90
2019-02-27T13:59:28.445Z,20.00
2019-02-27T14:01:56.015Z,20.00
2019-02-27T14:04:23.568Z,20.00
2019-02-27T14:06:51.201Z,20.00
2019-02-27T14:09:19.078Z,20.00
2019-02-27T14:11:46.726Z,20.20
2019-02-27T14:14:15.057Z,20.30
2019-02-27T14:16:44.278Z,20.30
2019-02-27T14:19:11.851Z,20.30
2019-02-27T14:21:39.739Z,20.20
2019-02-27T14:24:07.445Z,20.30
2019-02-27T14:26:35.057Z,20.10
2019-02-27T14:29:04.112Z,20.20
2019-02-27T14:31:32.728Z,20.20
2019-02-27T14:34:00.292Z,20.30
2019-02-27T14:36:34.110Z,20.10
2019-02-27T14:39:01.746Z,20.10
2019-02-27T14:41:29.251Z,20.20
2019-02-27T14:43:57.597Z,20.30
2019-02-27T14:46:26.400Z,20.40
2019-02-27T14:48:53.954Z,20.50
2019-02-27T14:51:21.675Z,20.50
2019-02-27T14:53:52.672Z,20.40
2019-02-27T14:56:23.949Z,20.50
2019-02-27T14:58:56.539Z,20.50
2019-02-27T15:01:31.518Z,20.50
2019-02-27T15:04:00.452Z,20.60
2019-02-27T15:06:40.583Z,20.60
2019-02-27T15:09:13.205Z,20.60
2019-02-27T15:11:53.210Z,20.60
2019-02-27T15:14:23.010Z,20.60
2019-02-27T15:16:52.373Z,20.70
2019-02-27T15:19:20.008Z,20.80
2019-02-27T15:21:47.600Z,20.70
2019-02-27T15:24:15.451Z,20.70
2019-02-27T15:26:45.378Z,20.70
2019-02-27T15:29:17.636Z,20.60
2019-02-27T15:31:46.297Z,20.50
2019-02-27T15:34:21.778Z,20.40
2019-02-27T15:36:52.097Z,20.40
2019-02-27T15:39:21.294Z,20.40
2019-02-27T15:42:45.955Z,20.40
2019-02-27T15:44:35.246Z,20.40
2019-02-27T15:47:30.174Z,20.40
2019-02-27T15:50:22.664Z,20.40
2019-02-27T15:53:16.501Z,20.40
2019-02-27T15:55:49.975Z,20.40
2019-02-27T15:58:30.917Z,20.30
2019-02-27T16:01:04.958Z,20.30
2019-02-27T16:03:36.422Z,20.20
2019-02-27T16:06:26.171Z,20.10
2019-02-27T16:08:58.250Z,20.00
2019-02-27T16:11:25.015Z,19.90
2019-02-27T16:14:21.003Z,19.80
2019-02-27T16:16:58.285Z,19.80
2019-02-27T16:19:28.595Z,19.70
2019-02-27T16:21:57.960Z,19.50
2019-02-27T16:24:33.873Z,19.50
2019-02-27T16:39:19.398Z,19.30
2019-02-27T16:49:47.201Z,19.10
2019-02-27T16:52:20.226Z,19.00
2019-02-27T16:54:54.065Z,18.90
2019-02-27T16:57:33.062Z,18.90
2019-02-27T17:00:01.858Z,18.90
2019-02-27T17:02:35.522Z,18.80
2019-02-27T17:05:08.892Z,18.80
2019-02-27T17:07:37.635Z,18.80
2019-02-27T17:10:08.026Z,18.80
2019-02-27T17:12:38.251Z,18.70
2019-02-27T17:15:07.602Z,18.50
2019-02-27T17:17:37.891Z,18.40
2019-02-27T17:20:11.467Z,18.20
2019-02-27T17:22:37.737Z,18.00
2019-02-27T17:25:06.545Z,17.80
2019-02-27T17:27:34.194Z,17.70
2019-02-27T17:30:01.838Z,17.60
2019-02-27T17:32:30.261Z,17.50
2019-02-27T17:35:02.038Z,17.40
2019-02-27T17:37:31.198Z,17.30
2019-02-27T17:40:02.281Z,17.20
2019-02-27T17:42:30.066Z,17.10
2019-02-27T17:44:57.968Z,17.00
2019-02-27T17:47:29.311Z,17.00
2019-02-27T17:50:00.217Z,16.90
2019-02-27T17:52:30.121Z,16.70
2019-02-27T17:55:06.653Z,16.60
2019-02-27T17:57:38.461Z,16.50
2019-02-27T18:00:15.978Z,16.40
2019-02-27T18:02:48.154Z,16.10
2019-02-27T18:05:22.349Z,16.00
2019-02-27T18:08:24.537Z,15.90
2019-02-27T18:10:53.998Z,15.80
2019-02-27T18:13:26.091Z,15.70
2019-02-27T18:15:55.138Z,15.60
2019-02-27T18:18:26.227Z,15.50
2019-02-27T18:21:03.910Z,15.20
2019-02-27T18:23:39.950Z,15.00
2019-02-27T18:26:18.712Z,14.80
2019-02-27T18:32:06.434Z,14.60
2019-02-27T18:34:44.745Z,14.40
2019-02-27T18:37:22.203Z,14.40
2019-02-27T18:40:02.386Z,14.30
2019-02-27T18:42:37.080Z,14.30
2019-02-27T18:45:09.429Z,14.20
2019-02-27T18:47:44.236Z,14.10
2019-02-27T18:50:25.638Z,14.00
2019-02-27T18:56:27.386Z,13.70
2019-02-27T18:59:52.985Z,13.60
2019-02-27T19:02:26.258Z,13.40
2019-02-27T19:05:07.447Z,13.20
2019-02-27T19:07:39.312Z,13.10
2019-02-27T19:10:21.306Z,13.00
2019-02-27T19:13:02.909Z,12.90
2019-02-27T19:15:39.042Z,12.80
2019-02-27T19:18:07.493Z,12.70
2019-02-27T19:20:39.469Z,12.70
2019-02-27T19:23:07.993Z,12.60
2019-02-27T19:25:41.050Z,12.50
2019-02-27T19:28:10.509Z,12.30
2019-02-27T19:30:43.603Z,12.20
2019-02-27T19:33:18.333Z,12.20
2019-02-27T19:35:47.293Z,12.10
2019-02-27T19:38:22.676Z,12.00
2019-02-27T19:40:58.224Z,11.90
2019-02-27T19:43:55.022Z,11.80
2019-02-27T19:46:24.245Z,11.80
2019-02-27T19:49:05.207Z,11.80
2019-02-27T19:51:45.033Z,11.70
2019-02-27T19:54:14.864Z,11.60
2019-02-27T19:56:44.042Z,11.50
2019-02-27T20:02:09.280Z,11.30
2019-02-27T20:04:55.622Z,11.30
2019-02-27T20:07:40.944Z,11.20
2019-02-27T20:10:47.569Z,11.10
2019-02-27T20:14:05.365Z,10.90
2019-02-27T20:16:55.353Z,10.70
2019-02-27T20:19:53.265Z,10.70
2019-02-27T20:25:27.048Z,10.60
2019-02-27T20:27:59.002Z,10.50
2019-02-27T20:30:29.517Z,10.50
2019-02-27T20:32:59.850Z,10.40
2019-02-27T20:35:32.358Z,10.40
2019-02-27T20:38:03.733Z,10.40
2019-02-27T20:40:37.910Z,10.30
2019-02-27T20:43:22.527Z,10.20
2019-02-27T20:46:04.190Z,10.20
2019-02-27T20:48:36.004Z,10.10
2019-02-27T20:51:06.105Z,10.10
2019-02-27T20:53:35.024Z,10.00
2019-02-27T20:56:09.731Z,10.00
2019-02-27T20:58:57.864Z,9.80
2019-02-27T21:01:32.945Z,9.70
2019-02-27T21:04:02.473Z,9.70
2019-02-27T21:07:09.345Z,9.60
2019-02-27T21:10:19.963Z,9.50
2019-02-27T21:12:53.968Z,9.50
2019-02-27T21:15:41.671Z,9.40
2019-02-27T21:18:22.236Z,9.30
2019-02-27T21:25:16.063Z,9.10
2019-02-27T21:27:45.871Z,9.10
2019-02-27T21:30:20.590Z,9.10
2019-02-27T21:32:51.833Z,9.10
2019-02-27T21:35:22.207Z,8.90
2019-02-27T21:37:56.123Z,8.90
2019-02-27T21:40:27.406Z,8.90
2019-02-27T21:43:14.812Z,8.80
2019-02-27T21:46:11.748Z,8.70
2019-02-27T21:49:54.779Z,8.60
2019-02-27T21:52:44.217Z,8.50
2019-02-27T21:55:29.834Z,8.50
2019-02-27T22:04:38.245Z,8.40
2019-02-27T22:07:39.079Z,8.30
2019-02-27T22:10:31.237Z,8.30
2019-02-27T22:13:00.525Z,8.20
2019-02-27T22:15:30.380Z,8.00
2019-02-27T22:17:59.676Z,7.90
2019-02-27T22:20:28.007Z,7.80
2019-02-27T22:22:56.149Z,7.80
2019-02-27T22:25:30.163Z,7.80
2019-02-27T22:27:55.488Z,7.80
2019-02-27T22:30:23.836Z,7.80
2019-02-27T22:32:51.668Z,7.80
2019-02-27T22:35:22.953Z,7.70
2019-02-27T22:37:53.994Z,7.50
2019-02-27T22:40:22.843Z,7.50
2019-02-27T22:42:50.775Z,7.40
2019-02-27T22:45:19.029Z,7.40
2019-02-27T22:47:49.330Z,7.40
2019-02-27T22:50:17.350Z,7.40
2019-02-27T22:52:54.057Z,7.30
2019-02-27T22:55:21.174Z,7.30
2019-02-27T22:58:02.558Z,7.30
2019-02-27T23:01:18.365Z,7.30
2019-02-27T23:03:55.020Z,7.30
2019-02-27T23:06:23.147Z,7.30
2019-02-27T23:08:55.015Z,7.30
2019-02-27T23:11:23.414Z,7.30
2019-02-27T23:13:54.018Z,7.20
2019-02-27T23:16:29.822Z,7.00
2019-02-27T23:18:59.709Z,6.90
2019-02-27T23:21:37.992Z,7.00
2019-02-27T23:25:02.526Z,6.80
2019-02-27T23:27:31.741Z,6.80
2019-02-27T23:29:59.884Z,6.90
2019-02-27T23:32:28.618Z,6.80
2019-02-27T23:34:57.466Z,6.80
2019-02-27T23:37:29.686Z,6.80
2019-02-27T23:39:58.697Z,6.80
2019-02-27T23:42:27.932Z,6.70
2019-02-27T23:44:57.445Z,6.70
2019-02-27T23:47:28.734Z,6.40
2019-02-27T23:49:56.038Z,6.40
2019-02-27T23:52:24.082Z,6.40
2019-02-27T23:55:07.109Z,6.30
2019-02-27T23:57:38.062Z,6.30
